createdAt,value
2019-06-10T00:00:38.482Z,56.50
2019-06-10T00:03:08.149Z,69.23
2019-06-10T00:05:41.129Z,59.43
2019-06-10T00:08:11.912Z,56.50
2019-06-10T00:10:42.433Z,55.50
2019-06-10T00:13:13.553Z,56.70
2019-06-10T00:15:43.486Z,55.90
2019-06-10T00:18:34.034Z,54.73
2019-06-10T00:21:07.077Z,59.30
2019-06-10T00:23:37.731Z,54.50
2019-06-10T00:26:09.039Z,56.50
2019-06-10T00:28:40.658Z,57.00
2019-06-10T00:31:11.468Z,55.53
2019-06-10T00:33:41.543Z,55.40
2019-06-10T00:36:13.554Z,58.17
2019-06-10T00:38:42.965Z,56.47
2019-06-10T00:41:14.039Z,55.00
2019-06-10T00:43:44.002Z,56.43
2019-06-10T00:46:13.683Z,55.47
2019-06-10T00:48:43.549Z,55.00
2019-06-10T00:51:13.360Z,54.03
2019-06-10T00:53:43.058Z,55.50
2019-06-10T00:56:14.322Z,54.17
2019-06-10T00:59:05.824Z,54.83
2019-06-10T01:01:35.721Z,54.83
2019-06-10T01:04:06.965Z,52.63
2019-06-10T01:06:36.830Z,53.80
2019-06-10T01:09:12.825Z,55.50
2019-06-10T01:11:41.405Z,54.17
2019-06-10T01:14:12.573Z,53.47
2019-06-10T01:16:42.609Z,54.37
2019-06-10T01:19:12.851Z,54.50
2019-06-10T01:21:43.770Z,55.50
2019-06-10T01:24:32.706Z,53.90
2019-06-10T01:27:02.421Z,55.40
2019-06-10T01:29:33.734Z,53.43
2019-06-10T01:32:03.400Z,55.40
2019-06-10T01:34:33.077Z,52.97
2019-06-10T01:37:02.800Z,56.03
2019-06-10T01:39:32.485Z,55.73
2019-06-10T01:42:02.194Z,55.30
2019-06-10T01:44:31.921Z,57.80
2019-06-10T01:47:01.600Z,57.67
2019-06-10T01:49:31.289Z,53.97
2019-06-10T01:52:01.646Z,53.50
2019-06-10T01:54:31.817Z,54.80
2019-06-10T01:57:01.665Z,52.00
2019-06-10T01:59:31.655Z,54.63
2019-06-10T02:02:02.967Z,53.87
2019-06-10T02:04:32.959Z,54.20
2019-06-10T02:07:02.650Z,52.50
2019-06-10T02:09:32.460Z,51.23
2019-06-10T02:12:02.420Z,51.53
2019-06-10T02:14:32.332Z,52.27
2019-06-10T02:17:01.995Z,52.33
2019-06-10T02:19:31.785Z,51.30
2019-06-10T02:22:01.495Z,51.30
2019-06-10T02:24:31.623Z,50.80
2019-06-10T02:27:01.591Z,51.93
2019-06-10T02:29:31.280Z,51.27
2019-06-10T02:32:04.750Z,53.07
2019-06-10T02:34:36.723Z,51.93
2019-06-10T02:37:04.917Z,50.73
2019-06-10T02:39:38.822Z,50.83
2019-06-10T02:42:14.721Z,51.17
2019-06-10T02:44:44.497Z,50.53
2019-06-10T02:47:18.355Z,51.07
2019-06-10T02:49:57.175Z,51.83
2019-06-10T02:52:23.150Z,51.70
2019-06-10T02:54:53.635Z,52.50
2019-06-10T02:57:29.681Z,53.90
2019-06-10T02:59:54.602Z,52.27
2019-06-10T03:02:31.333Z,50.77
2019-06-10T03:04:55.900Z,52.47
2019-06-10T03:07:28.767Z,53.37
2019-06-10T03:09:57.123Z,54.63
2019-06-10T03:12:28.087Z,56.27
2019-06-10T03:15:07.257Z,52.67
2019-06-10T03:17:36.958Z,53.63
2019-06-10T03:20:08.421Z,53.50
2019-06-10T03:22:38.127Z,55.53
2019-06-10T03:25:08.587Z,54.80
2019-06-10T03:27:38.263Z,53.10
2019-06-10T03:30:15.774Z,53.10
2019-06-10T03:32:42.628Z,51.00
2019-06-10T03:35:13.239Z,54.77
2019-06-10T03:37:43.129Z,52.10
2019-06-10T03:40:13.612Z,53.23
2019-06-10T03:42:45.642Z,52.43
2019-06-10T03:45:17.482Z,52.00
2019-06-10T03:47:47.194Z,54.57
2019-06-10T03:50:19.208Z,51.10
2019-06-10T03:52:49.116Z,50.67
2019-06-10T03:55:19.346Z,51.13
2019-06-10T03:57:52.647Z,52.10
2019-06-10T04:00:24.508Z,52.90
2019-06-10T04:02:54.264Z,54.73
2019-06-10T04:05:25.516Z,52.23
2019-06-10T04:07:55.477Z,51.53
2019-06-10T04:10:27.842Z,52.50
2019-06-10T04:12:56.576Z,50.70
2019-06-10T04:15:29.472Z,52.70
2019-06-10T04:17:59.240Z,51.20
2019-06-10T04:20:29.724Z,53.10
2019-06-10T04:22:59.406Z,52.33
2019-06-10T04:25:29.587Z,54.07
2019-06-10T04:28:03.016Z,54.07
2019-06-10T04:30:32.598Z,54.33
2019-06-10T04:33:02.479Z,52.60
2019-06-10T04:35:33.681Z,53.43
2019-06-10T04:38:03.527Z,52.80
2019-06-10T04:40:33.292Z,53.97
2019-06-10T04:43:03.129Z,52.73
2019-06-10T04:45:32.815Z,54.53
2019-06-10T04:48:03.045Z,55.67
2019-06-10T04:50:42.257Z,54.20
2019-06-10T04:53:06.286Z,56.77
2019-06-10T04:55:35.973Z,55.83
2019-06-10T04:58:05.653Z,55.17
2019-06-10T05:00:35.342Z,56.93
2019-06-10T05:03:05.037Z,55.93
2019-06-10T05:05:34.915Z,54.83
2019-06-10T05:08:04.796Z,54.17
2019-06-10T05:10:34.492Z,53.93
2019-06-10T05:13:04.209Z,56.13
2019-06-10T05:15:34.916Z,55.17
2019-06-10T05:18:05.663Z,57.53
2019-06-10T05:20:50.813Z,54.07
2019-06-10T05:23:06.764Z,53.43
2019-06-10T05:25:36.460Z,55.83
2019-06-10T05:28:06.174Z,55.33
2019-06-10T05:30:35.842Z,55.13
2019-06-10T05:33:05.522Z,56.23
2019-06-10T05:35:35.221Z,55.53
2019-06-10T05:38:05.019Z,55.33
2019-06-10T05:40:34.680Z,53.53
2019-06-10T05:43:04.664Z,54.47
2019-06-10T05:45:35.087Z,54.20
2019-06-10T05:48:05.161Z,56.43
2019-06-10T05:50:35.118Z,59.87
2019-06-10T05:53:04.991Z,55.97
2019-06-10T05:55:35.348Z,56.47
2019-06-10T05:58:05.792Z,55.63
2019-06-10T06:00:36.040Z,57.07
2019-06-10T06:03:06.113Z,57.93
2019-06-10T06:05:37.645Z,56.87
2019-06-10T06:08:08.855Z,58.87
2019-06-10T06:10:38.619Z,58.10
2019-06-10T06:13:08.303Z,59.00
2019-06-10T06:15:38.202Z,55.17
2019-06-10T06:18:10.569Z,58.23
2019-06-10T06:20:39.573Z,60.53
2019-06-10T06:23:09.384Z,61.47
2019-06-10T06:25:43.318Z,56.37
2019-06-10T06:28:12.983Z,57.53
2019-06-10T06:30:42.421Z,57.20
2019-06-10T06:33:13.545Z,58.73
2019-06-10T06:35:46.472Z,56.00
2019-06-10T06:38:15.017Z,57.23
2019-06-10T06:40:44.681Z,56.10
2019-06-10T06:43:14.705Z,58.50
2019-06-10T06:45:44.600Z,56.97
2019-06-10T06:48:14.277Z,60.13
2019-06-10T06:51:00.150Z,57.23
2019-06-10T06:53:25.621Z,61.47
2019-06-10T06:55:47.209Z,60.67
2019-06-10T06:58:16.924Z,58.80
2019-06-10T07:01:00.100Z,57.23
2019-06-10T07:03:18.078Z,57.83
2019-06-10T07:05:47.791Z,59.60
2019-06-10T07:08:18.357Z,58.83
2019-06-10T07:10:48.937Z,60.87
2019-06-10T07:13:18.953Z,60.47
2019-06-10T07:15:48.814Z,60.10
2019-06-10T07:18:18.562Z,61.63
2019-06-10T07:20:48.310Z,60.63
2019-06-10T07:23:17.985Z,61.77
2019-06-10T07:25:47.834Z,61.10
2019-06-10T07:28:18.036Z,60.07
2019-06-10T07:30:52.691Z,61.93
2019-06-10T07:33:19.174Z,63.57
2019-06-10T07:35:48.886Z,63.53
2019-06-10T07:38:18.559Z,64.47
2019-06-10T07:40:48.231Z,63.30
2019-06-10T07:43:17.936Z,65.73
2019-06-10T07:45:48.229Z,61.17
2019-06-10T07:48:18.258Z,65.73
2019-06-10T07:50:47.959Z,62.57
2019-06-10T07:53:17.630Z,63.23
2019-06-10T07:55:47.303Z,63.47
2019-06-10T07:58:17.013Z,62.13
2019-06-10T08:00:48.636Z,67.93
2019-06-10T08:03:18.456Z,66.20
2019-06-10T08:05:48.208Z,63.87
2019-06-10T08:08:17.882Z,64.87
2019-06-10T08:10:48.234Z,61.27
2019-06-10T08:13:18.302Z,61.57
2019-06-10T08:15:48.387Z,63.30
2019-06-10T08:18:18.570Z,61.33
2019-06-10T08:20:48.281Z,62.63
2019-06-10T08:23:23.314Z,62.93
2019-06-10T08:25:57.584Z,60.37
2019-06-10T08:28:25.604Z,62.50
2019-06-10T08:30:55.296Z,64.00
2019-06-10T08:33:24.999Z,61.73
2019-06-10T08:36:00.424Z,64.60
2019-06-10T08:38:27.558Z,62.40
2019-06-10T08:40:57.848Z,63.40
2019-06-10T08:43:27.909Z,61.07
2019-06-10T08:45:57.648Z,63.47
2019-06-10T08:48:27.672Z,64.30
2019-06-10T08:50:58.825Z,61.53
2019-06-10T08:53:28.592Z,62.40
2019-06-10T08:55:58.287Z,61.73
2019-06-10T08:58:28.000Z,63.47
2019-06-10T09:00:57.528Z,63.70
2019-06-10T09:03:27.186Z,63.50
2019-06-10T09:05:58.488Z,62.30
2019-06-10T09:08:28.483Z,64.37
2019-06-10T09:10:58.143Z,62.97
2019-06-10T09:13:27.840Z,64.57
2019-06-10T09:16:10.895Z,64.33
2019-06-10T09:18:29.930Z,62.77
2019-06-10T09:21:02.158Z,65.40
2019-06-10T09:23:33.179Z,65.97
2019-06-10T09:26:03.523Z,66.20
2019-06-10T09:28:33.606Z,66.73
2019-06-10T09:31:05.119Z,67.57
2019-06-10T09:33:34.726Z,65.27
2019-06-10T09:36:06.212Z,66.30
2019-06-10T09:38:35.900Z,67.27
2019-06-10T09:41:06.576Z,66.70
2019-06-10T09:43:36.310Z,63.83
2019-06-10T09:46:06.429Z,64.00
2019-06-10T09:48:36.156Z,65.17
2019-06-10T09:51:06.016Z,63.27
2019-06-10T09:53:42.900Z,66.40
2019-06-10T09:56:07.104Z,64.97
2019-06-10T09:58:37.361Z,64.67
2019-06-10T10:01:07.556Z,65.40
2019-06-10T10:03:37.245Z,65.23
2019-06-10T10:06:14.539Z,66.97
2019-06-10T10:08:38.879Z,65.53
2019-06-10T10:11:08.545Z,64.63
2019-06-10T10:13:38.242Z,67.43
2019-06-10T10:16:07.936Z,66.33
2019-06-10T10:18:37.612Z,63.10
2019-06-10T10:21:07.316Z,64.93
2019-06-10T10:23:51.337Z,62.27
2019-06-10T10:26:08.579Z,63.53
2019-06-10T10:28:38.255Z,63.73
2019-06-10T10:31:08.063Z,65.27
2019-06-10T10:33:37.751Z,63.97
2019-06-10T10:36:07.413Z,65.10
2019-06-10T10:38:37.124Z,66.33
2019-06-10T10:41:06.811Z,63.63
2019-06-10T10:43:37.660Z,61.57
2019-06-10T10:46:07.769Z,65.40
2019-06-10T10:48:37.431Z,62.57
2019-06-10T10:51:08.761Z,64.40
2019-06-10T10:53:38.648Z,62.67
2019-06-10T10:56:09.515Z,63.23
2019-06-10T10:58:39.500Z,62.03
2019-06-10T11:01:09.202Z,62.83
2019-06-10T11:03:38.887Z,65.00
2019-06-10T11:06:13.259Z,64.40
2019-06-10T11:08:46.302Z,64.80
2019-06-10T11:11:15.812Z,64.77
2019-06-10T11:13:47.798Z,62.80
2019-06-10T11:16:17.512Z,66.17
2019-06-10T11:18:47.270Z,64.90
2019-06-10T11:21:16.966Z,67.13
2019-06-10T11:23:48.022Z,62.50
2019-06-10T11:26:22.838Z,65.23
2019-06-10T11:28:55.623Z,63.97
2019-06-10T11:31:24.914Z,64.30
2019-06-10T11:33:58.684Z,67.00
2019-06-10T11:36:26.331Z,62.77
2019-06-10T11:38:58.984Z,62.60
2019-06-10T11:41:27.440Z,62.90
2019-06-10T11:43:59.212Z,62.27
2019-06-10T11:46:28.707Z,64.87
2019-06-10T11:48:59.118Z,63.50
2019-06-10T11:51:29.242Z,63.03
2019-06-10T11:53:59.053Z,61.07
2019-06-10T11:56:28.749Z,60.40
2019-06-10T11:59:00.305Z,61.17
2019-06-10T12:01:30.942Z,59.80
2019-06-10T12:04:04.087Z,58.73
2019-06-10T12:06:33.962Z,61.70
2019-06-10T12:09:08.367Z,59.50
2019-06-10T12:11:38.042Z,58.33
2019-06-10T12:14:08.567Z,59.30
2019-06-10T12:19:12.790Z,60.03
2019-06-10T12:21:43.505Z,62.13
2019-06-10T12:24:13.458Z,63.93
2019-06-10T12:26:43.597Z,62.77
2019-06-10T12:29:13.408Z,61.03
2019-06-10T12:31:43.099Z,61.33
2019-06-10T12:34:12.777Z,60.93
2019-06-10T12:36:42.523Z,61.30
2019-06-10T12:39:15.684Z,60.80
2019-06-10T12:41:43.932Z,60.37
2019-06-10T12:44:13.645Z,59.20
2019-06-10T12:46:43.471Z,60.77
2019-06-10T12:49:15.305Z,59.50
2019-06-10T12:51:44.563Z,59.53
2019-06-10T12:54:14.218Z,63.70
2019-06-10T12:56:43.984Z,58.43
2019-06-10T12:59:13.870Z,61.10
2019-06-10T13:01:44.718Z,59.60
2019-06-10T13:04:14.888Z,58.03
2019-06-10T13:06:48.473Z,58.20
2019-06-10T13:09:20.044Z,57.03
2019-06-10T13:11:52.595Z,57.33
2019-06-10T13:14:22.044Z,57.83
2019-06-10T13:16:52.617Z,58.00
2019-06-10T13:19:23.233Z,58.13
2019-06-10T13:21:53.295Z,58.57
2019-06-10T13:24:22.968Z,56.83
2019-06-10T13:26:52.639Z,58.70
2019-06-10T13:29:25.029Z,58.47
2019-06-10T13:31:53.741Z,59.23
2019-06-10T13:34:23.413Z,59.17
2019-06-10T13:36:53.925Z,59.80
2019-06-10T13:39:27.674Z,57.70
2019-06-10T13:42:16.732Z,60.17
2019-06-10T13:44:46.420Z,57.13
2019-06-10T13:47:16.085Z,57.60
2019-06-10T13:49:45.856Z,57.27
2019-06-10T13:52:16.778Z,57.97
2019-06-10T13:54:46.909Z,56.53
2019-06-10T13:57:18.082Z,60.07
2019-06-10T13:59:47.763Z,57.70
2019-06-10T14:02:17.442Z,56.20
2019-06-10T14:04:47.275Z,59.23
2019-06-10T14:07:17.668Z,58.33
2019-06-10T14:09:47.991Z,56.97
2019-06-10T14:12:17.957Z,59.47
2019-06-10T14:14:47.915Z,61.07
2019-06-10T14:17:19.392Z,59.77
2019-06-10T14:19:49.064Z,57.10
2019-06-10T14:22:18.756Z,56.97
2019-06-10T14:24:48.601Z,59.47
2019-06-10T14:27:21.467Z,63.17
2019-06-10T14:29:49.721Z,59.70
2019-06-10T14:32:19.398Z,58.60
2019-06-10T14:34:49.120Z,59.40
2019-06-10T14:37:32.327Z,59.77
2019-06-10T14:39:52.889Z,58.60
2019-06-10T14:42:23.241Z,59.47
2019-06-10T14:44:53.235Z,59.13
2019-06-10T14:47:23.182Z,59.83
2019-06-10T14:49:53.174Z,56.77
2019-06-10T14:52:22.893Z,58.63
2019-06-10T14:54:53.358Z,59.30
2019-06-10T14:57:23.185Z,60.77
2019-06-10T14:59:53.363Z,57.83
2019-06-10T15:02:23.215Z,57.33
2019-06-10T15:04:53.292Z,56.90
2019-06-10T15:07:23.930Z,58.30
2019-06-10T15:09:53.935Z,59.33
2019-06-10T15:12:23.743Z,58.30
2019-06-10T15:14:54.864Z,57.83
2019-06-10T15:17:24.527Z,57.03
2019-06-10T15:19:54.296Z,57.53
2019-06-10T15:22:23.989Z,58.13
2019-06-10T15:24:56.289Z,59.63
2019-06-10T15:27:30.811Z,56.50
2019-06-10T15:29:57.712Z,56.77
2019-06-10T15:32:34.470Z,58.57
2019-06-10T15:34:59.047Z,56.20
2019-06-10T15:37:30.183Z,56.50
2019-06-10T15:39:59.879Z,57.30
2019-06-10T15:42:29.578Z,56.00
2019-06-10T15:44:59.261Z,56.80
2019-06-10T15:47:29.072Z,55.63
2019-06-10T15:49:58.906Z,56.60
2019-06-10T15:52:28.684Z,57.90
2019-06-10T15:54:58.435Z,53.83
2019-06-10T15:57:40.673Z,55.20
2019-06-10T16:00:14.284Z,56.37
2019-06-10T16:02:40.170Z,54.27
2019-06-10T16:05:13.876Z,55.40
2019-06-10T16:07:42.454Z,55.83
2019-06-10T16:10:17.854Z,55.80
2019-06-10T16:12:45.669Z,55.97
2019-06-10T16:15:17.750Z,55.00
2019-06-10T16:17:47.931Z,57.97
2019-06-10T16:20:21.873Z,56.90
2019-06-10T16:22:52.351Z,57.03
2019-06-10T16:25:26.484Z,57.67
2019-06-10T16:27:55.232Z,56.07
2019-06-10T16:30:26.086Z,53.10
2019-06-10T16:32:55.888Z,53.97
2019-06-10T16:35:26.998Z,52.87
2019-06-10T16:37:57.128Z,52.63
2019-06-10T16:40:27.301Z,54.00
2019-06-10T16:43:00.301Z,53.93
2019-06-10T16:45:33.842Z,54.77
2019-06-10T16:48:02.591Z,55.10
2019-06-10T16:50:34.079Z,54.80
2019-06-10T16:53:04.094Z,55.37
2019-06-10T16:55:33.873Z,53.27
2019-06-10T16:58:03.722Z,53.87
2019-06-10T17:00:34.884Z,55.77
2019-06-10T17:03:06.505Z,52.27
2019-06-10T17:05:36.169Z,52.60
2019-06-10T17:08:06.174Z,56.77
2019-06-10T17:10:35.869Z,54.03
2019-06-10T17:13:07.192Z,56.23
2019-06-10T17:15:36.861Z,51.77
2019-06-10T17:18:06.921Z,52.70
2019-06-10T17:20:36.591Z,54.73
2019-06-10T17:23:26.628Z,54.07
2019-06-10T17:25:56.611Z,52.73
2019-06-10T17:28:31.430Z,52.00
2019-06-10T17:30:59.167Z,54.50
2019-06-10T17:33:30.414Z,53.03
2019-06-10T17:36:00.265Z,52.90
2019-06-10T17:38:31.213Z,53.63
2019-06-10T17:41:03.014Z,52.63
2019-06-10T17:43:34.438Z,52.03
2019-06-10T17:46:04.655Z,53.33
2019-06-10T17:48:34.330Z,53.93
2019-06-10T17:51:05.100Z,52.97
2019-06-10T17:53:36.363Z,52.57
2019-06-10T17:56:06.030Z,52.90
2019-06-10T17:58:50.355Z,54.13
2019-06-10T18:01:07.207Z,50.60
2019-06-10T18:03:39.914Z,56.13
2019-06-10T18:06:08.281Z,51.97
2019-06-10T18:08:40.662Z,53.57
2019-06-10T18:11:09.577Z,51.97
2019-06-10T18:13:39.446Z,54.23
2019-06-10T18:16:09.132Z,53.90
2019-06-10T18:18:38.918Z,56.07
2019-06-10T18:21:08.637Z,53.73
2019-06-10T18:23:38.314Z,51.60
2019-06-10T18:26:08.008Z,51.47
2019-06-10T18:28:59.772Z,53.17
2019-06-10T18:31:09.104Z,52.33
2019-06-10T18:33:42.475Z,50.60
2019-06-10T18:36:12.216Z,50.37
2019-06-10T18:38:43.289Z,49.77
2019-06-10T18:41:13.487Z,51.33
2019-06-10T18:43:43.688Z,54.43
2019-06-10T18:46:13.467Z,52.60
2019-06-10T18:48:43.498Z,52.67
2019-06-10T18:51:13.256Z,52.37
2019-06-10T18:53:42.922Z,50.23
2019-06-10T18:56:12.964Z,51.20
2019-06-10T18:58:42.876Z,52.17
2019-06-10T19:01:12.730Z,51.27
2019-06-10T19:03:42.906Z,52.53
2019-06-10T19:06:12.982Z,51.17
2019-06-10T19:08:44.243Z,50.17
2019-06-10T19:11:14.220Z,51.50
2019-06-10T19:13:47.266Z,52.60
2019-06-10T19:16:17.122Z,52.40
2019-06-10T19:18:46.929Z,51.50
2019-06-10T19:21:16.623Z,53.33
2019-06-10T19:23:46.307Z,52.43
2019-06-10T19:26:16.085Z,49.33
2019-06-10T19:28:45.780Z,51.63
2019-06-10T19:31:15.469Z,53.67
2019-06-10T19:33:45.612Z,51.17
2019-06-10T19:36:15.822Z,50.80
2019-06-10T19:38:45.559Z,51.67
2019-06-10T19:41:15.569Z,52.40
2019-06-10T19:43:45.608Z,52.40
2019-06-10T19:46:16.126Z,53.70
2019-06-10T19:48:57.164Z,52.00
2019-06-10T19:51:17.503Z,49.73
2019-06-10T19:53:47.199Z,49.03
2019-06-10T19:56:16.879Z,51.03
2019-06-10T19:58:46.637Z,51.40
2019-06-10T20:01:16.408Z,51.10
2019-06-10T20:03:47.064Z,48.50
2019-06-10T20:06:16.906Z,52.87
2019-06-10T20:08:46.595Z,50.57
2019-06-10T20:11:16.287Z,53.33
2019-06-10T20:13:46.844Z,51.83
2019-06-10T20:16:16.932Z,51.47
2019-06-10T20:18:48.206Z,51.77
2019-06-10T20:21:18.048Z,51.40
2019-06-10T20:23:47.941Z,51.33
2019-06-10T20:26:17.562Z,53.93
2019-06-10T20:28:52.121Z,49.53
2019-06-10T20:31:18.642Z,52.13
2019-06-10T20:33:48.388Z,51.97
2019-06-10T20:36:23.354Z,52.27
2019-06-10T20:38:51.225Z,51.90
2019-06-10T20:41:20.982Z,52.37
2019-06-10T20:43:55.186Z,50.57
2019-06-10T20:46:23.588Z,52.10
2019-06-10T20:48:54.498Z,54.53
2019-06-10T20:51:27.078Z,50.33
2019-06-10T20:53:55.992Z,54.90
2019-06-10T20:56:25.737Z,50.87
2019-06-10T20:58:55.447Z,50.20
2019-06-10T21:01:25.821Z,52.37
2019-06-10T21:03:55.777Z,53.50
2019-06-10T21:06:32.860Z,53.53
2019-06-10T21:09:04.123Z,51.23
2019-06-10T21:11:33.825Z,54.47
2019-06-10T21:14:03.520Z,52.70
2019-06-10T21:16:33.191Z,52.73
2019-06-10T21:19:02.851Z,51.37
2019-06-10T21:21:32.753Z,52.83
2019-06-10T21:24:04.060Z,54.07
2019-06-10T21:26:33.812Z,51.70
2019-06-10T21:29:03.941Z,54.63
2019-06-10T21:31:33.798Z,52.30
2019-06-10T21:34:03.550Z,52.40
2019-06-10T21:36:33.330Z,54.40
2019-06-10T21:39:05.235Z,55.10
2019-06-10T21:41:34.940Z,51.43
2019-06-10T21:44:04.950Z,54.43
2019-06-10T21:46:34.703Z,53.47
2019-06-10T21:49:04.366Z,52.37
2019-06-10T21:51:34.685Z,52.87
2019-06-10T21:54:04.517Z,53.20
2019-06-10T21:56:34.191Z,52.97
2019-06-10T21:59:04.090Z,52.50
2019-06-10T22:01:33.837Z,53.53
2019-06-10T22:04:04.675Z,54.60
2019-06-10T22:06:34.517Z,52.60
2019-06-10T22:09:06.195Z,49.50
2019-06-10T22:11:35.851Z,49.70
2019-06-10T22:14:05.787Z,50.17
2019-06-10T22:16:35.450Z,52.53
2019-06-10T22:19:05.187Z,52.17
2019-06-10T22:21:34.896Z,51.67
2019-06-10T22:24:04.647Z,51.80
2019-06-10T22:26:34.324Z,52.07
2019-06-10T22:29:04.182Z,51.47
2019-06-10T22:31:33.912Z,55.63
2019-06-10T22:34:03.585Z,53.17
2019-06-10T22:36:33.301Z,51.73
2019-06-10T22:39:03.364Z,53.13
2019-06-10T22:41:33.199Z,54.17
2019-06-10T22:44:03.661Z,50.97
2019-06-10T22:46:33.664Z,50.90
2019-06-10T22:49:03.351Z,51.10
2019-06-10T22:51:33.169Z,51.23
2019-06-10T22:54:03.895Z,52.30
2019-06-10T22:56:33.823Z,54.77
2019-06-10T22:59:03.702Z,51.27
2019-06-10T23:01:37.983Z,51.97
2019-06-10T23:04:05.080Z,52.13
2019-06-10T23:06:34.773Z,52.13
2019-06-10T23:09:05.738Z,52.47
2019-06-10T23:11:35.422Z,51.50
2019-06-10T23:14:05.369Z,51.73
2019-06-10T23:16:35.114Z,51.70
2019-06-10T23:19:04.776Z,53.57
2019-06-10T23:21:34.497Z,51.63
2019-06-10T23:24:04.155Z,51.87
2019-06-10T23:26:33.824Z,53.20
2019-06-10T23:29:03.579Z,52.00
2019-06-10T23:31:48.342Z,53.00
2019-06-10T23:34:04.746Z,53.07
2019-06-10T23:36:34.432Z,53.27
2019-06-10T23:39:04.768Z,55.27
2019-06-10T23:41:34.426Z,51.53
2019-06-10T23:44:04.596Z,52.23
2019-06-10T23:46:34.390Z,54.47
2019-06-10T23:49:04.614Z,51.83
2019-06-10T23:51:34.568Z,52.97
2019-06-10T23:54:06.209Z,55.20
2019-06-10T23:56:35.704Z,52.87
2019-06-10T23:59:05.397Z,52.73
